Time;durP1;ratioP1;P1;durP2;ratioP2;P2;SDS_P1;SDS_P2;PMS_P1;PMS_P2;Temp;Humidity;BMP_temperature;BMP_pressure;BME280_temperature;BME280_humidity;BME280_pressure;Samples;Min_cycle;Max_cycle;Signal;HPM_P1;HPM_P2
2022/08/26 03:03:02;;;;;;;0.70;0.60;;;22.60;69.60;;;;;;5034661;22;20496;-72
2022/08/26 03:05:29;;;;;;;0.70;0.70;;;22.60;69.60;;;;;;5035003;28;20440;-71
2022/08/26 03:07:55;;;;;;;0.80;0.80;;;22.60;69.60;;;;;;5035092;28;20443;-72
2022/08/26 03:10:22;;;;;;;0.70;0.60;;;22.60;69.50;;;;;;5035003;28;20502;-71
2022/08/26 03:12:49;;;;;;;0.70;0.60;;;22.50;69.50;;;;;;5014748;28;20445;-71
2022/08/26 03:15:17;;;;;;;0.70;0.60;;;22.50;69.40;;;;;;5016548;28;20498;-71
2022/08/26 03:17:45;;;;;;;0.80;0.70;;;22.50;69.50;;;;;;5015078;28;20498;-72
2022/08/26 03:20:14;;;;;;;0.77;0.77;;;22.50;69.50;;;;;;5015082;28;20444;-71
2022/08/26 03:22:41;;;;;;;0.70;0.70;;;22.40;69.60;;;;;;5014523;28;20483;-71
2022/08/26 03:25:10;;;;;;;0.73;0.70;;;22.40;69.70;;;;;;5015269;28;20444;-71
2022/08/26 03:27:37;;;;;;;0.80;0.70;;;22.40;69.80;;;;;;5015142;28;20452;-72
2022/08/26 03:32:49;;;;;;;0.70;0.70;;;22.30;70.00;;;;;;5014683;28;20428;-72
2022/08/26 03:35:17;;;;;;;0.80;0.70;;;22.30;70.20;;;;;;5014888;28;20452;-71
2022/08/26 03:37:44;;;;;;;0.87;0.87;;;22.20;70.10;;;;;;5014758;28;20455;-72
2022/08/26 03:40:11;;;;;;;0.83;0.80;;;22.20;70.20;;;;;;5014627;28;20448;-71
2022/08/26 03:42:38;;;;;;;0.80;0.60;;;22.10;70.00;;;;;;5014367;28;20488;-72
2022/08/26 03:45:09;;;;;;;0.77;0.70;;;22.10;69.80;;;;;;5014542;28;20457;-71
2022/08/26 03:47:36;;;;;;;1.30;0.70;;;22.10;70.10;;;;;;5014585;28;20460;-71
2022/08/26 03:50:04;;;;;;;0.80;0.80;;;22.00;70.30;;;;;;5014361;28;20479;-71
2022/08/26 03:52:32;;;;;;;0.80;0.80;;;22.00;70.60;;;;;;5014029;28;21022;-71
2022/08/26 03:54:58;;;;;;;0.70;0.70;;;22.00;70.80;;;;;;5014353;28;20452;-71
2022/08/26 03:57:25;;;;;;;1.00;0.90;;;22.00;70.80;;;;;;5014927;28;20448;-72
2022/08/26 03:59:52;;;;;;;0.70;0.60;;;22.00;70.80;;;;;;5014251;28;20453;-71
2022/08/26 04:02:19;;;;;;;0.77;0.70;;;21.90;70.80;;;;;;5013944;28;20492;-71
2022/08/26 04:04:45;;;;;;;0.70;0.70;;;21.90;71.20;;;;;;5014182;28;20480;-71
2022/08/26 04:07:12;;;;;;;1.00;0.70;;;21.90;71.40;;;;;;5014217;28;20818;-72
2022/08/26 04:09:40;;;;;;;0.70;0.70;;;21.90;71.60;;;;;;5014431;28;20443;-72
2022/08/26 04:12:08;;;;;;;1.10;0.70;;;21.90;71.40;;;;;;5013974;28;20464;-72
2022/08/26 04:14:36;;;;;;;0.80;0.80;;;21.90;71.40;;;;;;5013812;28;20475;-72
2022/08/26 04:17:03;;;;;;;0.80;0.80;;;21.90;71.30;;;;;;5014065;28;20481;-72
2022/08/26 04:19:31;;;;;;;0.70;0.70;;;22.00;71.20;;;;;;5013937;28;20480;-71
2022/08/26 04:21:58;;;;;;;0.70;0.60;;;22.00;71.00;;;;;;5013761;28;20487;-71
2022/08/26 04:24:27;;;;;;;0.70;0.70;;;22.00;71.00;;;;;;5013882;28;20507;-71
2022/08/26 04:26:55;;;;;;;0.73;0.73;;;22.00;71.10;;;;;;5013784;28;20460;-72
2022/08/26 04:29:25;;;;;;;0.70;0.70;;;22.00;71.20;;;;;;5013895;28;20456;-71
2022/08/26 04:31:54;;;;;;;0.70;0.70;;;22.00;71.10;;;;;;5013727;28;20464;-71
2022/08/26 04:34:21;;;;;;;0.70;0.60;;;22.00;71.20;;;;;;5013599;28;20486;-71
2022/08/26 04:36:49;;;;;;;0.80;0.70;;;22.00;71.20;;;;;;5013769;28;20490;-71
2022/08/26 04:39:16;;;;;;;0.80;0.70;;;22.00;71.10;;;;;;5013716;28;20452;-71
2022/08/26 04:41:43;;;;;;;0.70;0.70;;;21.90;71.10;;;;;;5013593;28;20531;-72
2022/08/26 04:44:12;;;;;;;0.80;0.80;;;21.90;70.90;;;;;;5013606;28;20487;-71
2022/08/26 04:46:39;;;;;;;0.97;0.73;;;21.80;71.00;;;;;;5013302;28;20554;-71
2022/08/26 04:49:07;;;;;;;0.70;0.63;;;21.80;71.50;;;;;;5013333;28;20993;-71
2022/08/26 04:51:34;;;;;;;0.70;0.67;;;21.80;71.40;;;;;;5013576;28;20552;-71
2022/08/26 04:54:01;;;;;;;0.80;0.80;;;21.80;71.10;;;;;;5013347;28;20950;-72
2022/08/26 04:56:31;;;;;;;0.70;0.70;;;21.80;71.20;;;;;;5013608;28;20445;-72
2022/08/26 04:58:58;;;;;;;0.70;0.70;;;21.80;71.20;;;;;;5013483;28;20464;-72
2022/08/26 05:01:26;;;;;;;0.70;0.70;;;21.90;71.00;;;;;;5013222;28;20480;-72
2022/08/26 05:03:53;;;;;;;1.10;0.80;;;21.90;70.90;;;;;;5013398;28;20492;-71
2022/08/26 05:06:20;;;;;;;0.80;0.80;;;21.90;70.60;;;;;;5013400;28;20547;-72
2022/08/26 05:08:47;;;;;;;0.80;0.80;;;21.90;70.60;;;;;;5013088;28;20487;-72
2022/08/26 05:11:14;;;;;;;0.70;0.70;;;22.00;70.30;;;;;;5013305;28;20800;-72
2022/08/26 05:13:40;;;;;;;1.13;0.90;;;22.00;70.30;;;;;;5013358;28;20476;-72
2022/08/26 05:16:09;;;;;;;0.80;0.80;;;22.20;70.30;;;;;;5013876;28;20858;-73
2022/08/26 05:18:38;;;;;;;0.80;0.80;;;22.30;70.20;;;;;;5014253;28;20448;-73
2022/08/26 05:21:06;;;;;;;0.80;0.80;;;22.30;70.10;;;;;;5013241;28;20472;-73
2022/08/26 05:23:35;;;;;;;0.70;0.63;;;22.30;70.10;;;;;;5013160;28;20527;-73
2022/08/26 05:26:06;;;;;;;0.70;0.70;;;22.40;70.10;;;;;;5015645;28;20451;-73
2022/08/26 05:28:33;;;;;;;0.80;0.70;;;22.40;70.30;;;;;;5017000;28;20448;-73
2022/08/26 05:31:00;;;;;;;0.90;0.80;;;22.50;70.10;;;;;;5016910;28;20471;-73
2022/08/26 05:33:26;;;;;;;0.87;0.87;;;22.60;70.00;;;;;;5016583;28;20852;-73
2022/08/26 05:35:54;;;;;;;0.70;0.70;;;22.60;70.00;;;;;;5016933;28;20506;-73
2022/08/26 05:38:22;;;;;;;0.90;0.90;;;22.60;70.00;;;;;;5016798;28;20448;-73
2022/08/26 05:40:50;;;;;;;0.70;0.70;;;22.50;70.20;;;;;;5016343;28;20832;-73
2022/08/26 05:43:18;;;;;;;0.70;0.70;;;22.50;70.70;;;;;;5016402;28;21057;-73
2022/08/26 05:45:46;;;;;;;0.80;0.80;;;22.60;70.60;;;;;;5016639;28;20452;-73
2022/08/26 05:48:13;;;;;;;0.70;0.70;;;22.70;70.50;;;;;;5016672;28;20448;-73
2022/08/26 05:50:43;;;;;;;0.70;0.60;;;22.80;70.30;;;;;;5016447;28;20451;-73
2022/08/26 05:53:12;;;;;;;0.80;0.70;;;22.80;70.30;;;;;;5016522;28;20440;-73
2022/08/26 05:55:42;;;;;;;0.80;0.80;;;22.80;70.50;;;;;;5016476;28;20448;-73
2022/08/26 05:58:09;;;;;;;0.80;0.80;;;22.80;70.40;;;;;;5016381;28;20448;-73
2022/08/26 06:00:36;;;;;;;0.70;0.70;;;22.90;70.50;;;;;;5016209;28;20441;-73
2022/08/26 06:03:02;;;;;;;1.00;1.00;;;22.90;70.50;;;;;;5016256;28;20511;-73
2022/08/26 06:05:29;;;;;;;0.70;0.70;;;22.90;70.20;;;;;;5016021;28;20448;-73
2022/08/26 06:08:12;;;;;;;1.00;0.70;;;23.00;70.50;;;;;;5016253;28;20440;-73
2022/08/26 06:10:45;;;;;;;0.70;0.70;;;23.00;70.10;;;;;;5015888;28;20908;-73
2022/08/26 06:13:11;;;;;;;0.80;0.70;;;23.00;70.30;;;;;;5016149;28;20479;-73
2022/08/26 06:15:41;;;;;;;0.70;0.70;;;23.10;70.30;;;;;;5015798;28;20830;-73
2022/08/26 06:18:08;;;;;;;1.30;0.70;;;23.20;69.90;;;;;;5015719;28;21009;-73
2022/08/26 06:20:36;;;;;;;0.80;0.70;;;23.40;69.50;;;;;;5015643;28;20936;-73
2022/08/26 06:25:49;;;;;;;0.70;0.70;;;23.80;69.00;;;;;;5016044;28;20451;-73
2022/08/26 06:28:16;;;;;;;0.70;0.70;;;23.90;68.60;;;;;;5015851;28;20452;-73
2022/08/26 06:30:42;;;;;;;0.70;0.63;;;24.10;68.10;;;;;;5015777;28;20476;-73
2022/08/26 06:33:09;;;;;;;1.00;0.90;;;24.30;68.20;;;;;;5015756;28;20494;-73
2022/08/26 06:35:38;;;;;;;0.70;0.70;;;24.60;67.60;;;;;;5015310;28;20962;-73
2022/08/26 06:38:05;;;;;;;0.90;0.90;;;24.90;67.20;;;;;;5015664;28;20459;-73
2022/08/26 06:40:32;;;;;;;0.90;0.80;;;25.30;66.00;;;;;;5015556;28;20460;-74
2022/08/26 06:43:00;;;;;;;0.80;0.80;;;25.60;65.20;;;;;;5015495;28;20538;-73
2022/08/26 06:45:27;;;;;;;0.83;0.70;;;26.00;64.10;;;;;;5016353;28;20455;-73
2022/08/26 06:47:54;;;;;;;0.70;0.70;;;26.30;64.00;;;;;;5015171;28;20864;-73
2022/08/26 06:50:20;;;;;;;0.70;0.70;;;26.70;62.80;;;;;;5015173;28;20457;-73
2022/08/26 06:52:47;;;;;;;0.80;0.70;;;27.20;61.20;;;;;;5015246;28;20894;-73
2022/08/26 06:55:14;;;;;;;0.70;0.70;;;27.50;59.50;;;;;;5015336;28;20452;-73
2022/08/26 06:57:40;;;;;;;0.80;0.73;;;27.80;58.90;;;;;;5015250;28;20476;-73
2022/08/26 07:00:10;;;;;;;0.70;0.63;;;28.00;58.70;;;;;;5015263;28;20449;-73
2022/08/26 07:02:37;;;;;;;0.70;0.70;;;28.40;58.30;;;;;;5014739;28;20503;-73
2022/08/26 07:05:05;;;;;;;0.80;0.70;;;28.60;57.50;;;;;;5015183;28;20458;-74
2022/08/26 07:07:31;;;;;;;0.80;0.60;;;28.90;56.90;;;;;;5015123;28;20452;-74
2022/08/26 07:09:58;;;;;;;0.80;0.70;;;29.20;56.20;;;;;;5015027;28;20453;-74
2022/08/26 07:12:25;;;;;;;0.70;0.60;;;29.10;56.80;;;;;;5014578;28;20984;-74
2022/08/26 07:14:52;;;;;;;0.70;0.70;;;29.30;55.90;;;;;;5014992;28;20480;-74
2022/08/26 07:17:20;;;;;;;0.70;0.60;;;29.50;55.40;;;;;;5014907;28;20539;-74
2022/08/26 07:19:47;;;;;;;0.77;0.70;;;29.50;55.40;;;;;;5014856;28;20495;-74
2022/08/26 07:22:14;;;;;;;0.80;0.60;;;29.50;55.00;;;;;;5014660;28;20496;-74
2022/08/26 07:24:41;;;;;;;0.70;0.70;;;29.20;56.30;;;;;;5014672;28;20571;-74
2022/08/26 07:27:13;;;;;;;1.43;0.80;;;28.80;56.70;;;;;;5014409;28;20944;-74
2022/08/26 07:29:41;;;;;;;0.77;0.77;;;28.70;57.40;;;;;;5014741;28;20429;-74
2022/08/26 07:32:08;;;;;;;0.80;0.67;;;28.30;57.60;;;;;;5014569;28;20554;-73
2022/08/26 07:34:37;;;;;;;0.70;0.60;;;28.10;58.90;;;;;;5014378;28;20936;-74
2022/08/26 07:37:05;;;;;;;0.73;0.60;;;28.20;59.20;;;;;;5014584;28;20453;-74
2022/08/26 07:39:31;;;;;;;1.43;0.73;;;28.40;59.50;;;;;;5014473;28;20451;-75
2022/08/26 07:41:58;;;;;;;0.70;0.70;;;28.40;58.10;;;;;;5014090;28;20881;-75
2022/08/26 07:44:26;;;;;;;0.70;0.60;;;28.50;59.00;;;;;;5014335;28;20475;-73
2022/08/26 07:46:52;;;;;;;0.73;0.60;;;28.40;58.00;;;;;;5014355;28;20476;-73
2022/08/26 07:49:19;;;;;;;1.00;0.70;;;28.30;59.00;;;;;;5013871;28;20448;-73
2022/08/26 07:51:47;;;;;;;0.70;0.70;;;28.30;59.60;;;;;;5014310;28;20473;-72
2022/08/26 07:54:14;;;;;;;0.90;0.80;;;28.20;59.40;;;;;;5014273;28;20436;-73
2022/08/26 07:56:40;;;;;;;0.80;0.73;;;28.30;59.80;;;;;;5014180;28;20457;-74
2022/08/26 07:59:07;;;;;;;0.70;0.70;;;28.30;59.10;;;;;;5014210;28;20448;-74
2022/08/26 08:01:34;;;;;;;0.80;0.70;;;28.10;60.10;;;;;;5014079;28;20580;-73
2022/08/26 08:04:01;;;;;;;0.70;0.70;;;28.00;59.70;;;;;;5014092;28;20488;-73
2022/08/26 08:06:28;;;;;;;0.80;0.80;;;27.80;60.60;;;;;;5014347;28;20452;-73
2022/08/26 08:08:56;;;;;;;0.80;0.80;;;28.00;60.10;;;;;;5014124;28;20455;-74
2022/08/26 08:11:26;;;;;;;0.70;0.70;;;28.00;60.40;;;;;;5013904;28;20555;-74
2022/08/26 08:13:53;;;;;;;0.90;0.80;;;28.30;59.70;;;;;;5013846;28;20471;-73
2022/08/26 08:16:19;;;;;;;0.70;0.70;;;28.50;59.80;;;;;;5013884;28;20452;-73
2022/08/26 08:18:46;;;;;;;0.73;0.73;;;28.50;59.70;;;;;;5014066;28;20475;-73
2022/08/26 08:21:14;;;;;;;1.20;0.80;;;28.50;58.90;;;;;;5013581;28;21031;-73
2022/08/26 08:23:40;;;;;;;0.80;0.80;;;28.80;58.60;;;;;;5013750;28;20550;-73
2022/08/26 08:26:10;;;;;;;1.00;0.90;;;28.90;58.60;;;;;;5013731;28;20453;-73
2022/08/26 08:28:38;;;;;;;2.00;1.00;;;29.00;58.70;;;;;;5014066;28;20451;-73
2022/08/26 08:31:06;;;;;;;1.20;1.10;;;29.20;58.60;;;;;;5013685;28;20480;-73
2022/08/26 08:33:33;;;;;;;1.00;0.90;;;29.10;58.50;;;;;;5013605;28;20449;-73
2022/08/26 08:36:00;;;;;;;2.33;1.20;;;29.20;57.80;;;;;;5013552;28;20522;-73
2022/08/26 08:38:28;;;;;;;1.00;0.90;;;29.20;57.60;;;;;;5013896;28;20448;-73
2022/08/26 08:40:54;;;;;;;2.90;1.00;;;28.90;58.20;;;;;;5013430;28;20496;-73
2022/08/26 08:43:32;;;;;;;1.27;1.07;;;28.60;58.80;;;;;;5013173;28;20821;-73
2022/08/26 08:46:03;;;;;;;3.20;1.20;;;28.30;59.50;;;;;;5013621;28;20520;-73
2022/08/26 08:48:32;;;;;;;1.63;1.07;;;28.30;59.70;;;;;;5013522;28;20432;-73
2022/08/26 08:51:06;;;;;;;1.40;0.93;;;28.30;60.10;;;;;;5013371;28;20468;-73
2022/08/26 08:53:36;;;;;;;1.03;0.93;;;28.40;59.40;;;;;;5013489;28;20511;-73
2022/08/26 08:56:10;;;;;;;2.60;0.80;;;28.30;58.30;;;;;;5013197;28;20471;-74
2022/08/26 08:58:49;;;;;;;0.90;0.80;;;28.10;59.50;;;;;;5013509;28;20437;-73
2022/08/26 09:01:25;;;;;;;0.90;0.80;;;28.00;60.10;;;;;;5015949;28;21102;-73
2022/08/26 09:04:01;;;;;;;1.40;0.90;;;27.90;60.00;;;;;;5017313;28;20488;-73
2022/08/26 09:06:28;;;;;;;1.10;1.00;;;27.60;60.60;;;;;;5017373;28;20774;-73
2022/08/26 09:08:56;;;;;;;1.17;0.90;;;27.90;60.70;;;;;;5016951;28;20823;-73
2022/08/26 09:11:23;;;;;;;0.90;0.80;;;28.20;59.90;;;;;;5017522;28;20468;-73
2022/08/26 09:13:53;;;;;;;1.20;1.10;;;28.00;59.90;;;;;;5017697;28;20552;-74
2022/08/26 09:16:27;;;;;;;0.90;0.90;;;27.90;60.90;;;;;;5018343;28;20937;-73
2022/08/26 09:19:04;;;;;;;1.20;0.90;;;27.60;60.90;;;;;;5017392;28;20436;-74
2022/08/26 09:21:31;;;;;;;1.00;0.80;;;28.00;61.50;;;;;;5016968;28;20876;-74
2022/08/26 09:23:59;;;;;;;0.80;0.80;;;28.00;60.60;;;;;;5016831;28;21034;-73
2022/08/26 09:26:28;;;;;;;1.03;0.93;;;27.90;60.90;;;;;;5017382;28;20444;-74
2022/08/26 09:28:58;;;;;;;1.07;0.97;;;28.00;60.80;;;;;;5017429;28;20527;-73
2022/08/26 09:31:28;;;;;;;1.20;1.10;;;28.30;60.20;;;;;;5016869;28;20480;-73
2022/08/26 09:34:14;;;;;;;1.10;1.00;;;28.40;59.60;;;;;;5016875;28;20487;-74
2022/08/26 09:36:43;;;;;;;0.93;0.83;;;28.40;60.80;;;;;;5016876;28;20880;-74
2022/08/26 09:39:26;;;;;;;1.60;1.10;;;28.30;59.80;;;;;;5016904;28;20480;-73
2022/08/26 09:42:04;;;;;;;1.57;0.90;;;28.50;59.30;;;;;;5016652;28;20499;-73
2022/08/26 09:44:32;;;;;;;2.50;1.00;;;28.50;59.50;;;;;;5016717;28;20468;-73
2022/08/26 09:47:03;;;;;;;0.87;0.80;;;28.50;59.50;;;;;;5016630;28;20449;-74
2022/08/26 09:49:34;;;;;;;2.47;1.00;;;28.50;59.50;;;;;;5016362;28;20519;-73
2022/08/26 09:52:14;;;;;;;1.10;1.00;;;28.40;59.70;;;;;;5016249;28;20515;-74
2022/08/26 09:54:42;;;;;;;0.80;0.80;;;28.70;59.60;;;;;;5016610;28;20433;-74
2022/08/26 09:57:28;;;;;;;1.00;0.90;;;28.80;57.90;;;;;;5016184;28;20936;-74
2022/08/26 09:59:59;;;;;;;1.20;1.10;;;28.90;58.40;;;;;;5016248;28;20784;-74
2022/08/26 10:02:40;;;;;;;1.10;1.00;;;29.30;57.70;;;;;;5016011;28;20563;-74
2022/08/26 10:05:14;;;;;;;1.10;1.00;;;29.50;57.10;;;;;;5016330;28;20464;-74
2022/08/26 10:07:45;;;;;;;1.43;0.90;;;29.60;57.00;;;;;;5016319;28;20516;-74
2022/08/26 10:10:17;;;;;;;0.90;0.90;;;29.50;56.50;;;;;;5016196;28;20847;-74
2022/08/26 10:13:08;;;;;;;1.40;1.00;;;29.30;56.50;;;;;;5015946;28;20480;-74
2022/08/26 10:15:43;;;;;;;1.10;1.00;;;29.30;56.80;;;;;;5011160;28;20453;-74
2022/08/26 10:18:14;;;;;;;0.90;0.80;;;29.50;56.50;;;;;;5016121;28;20483;-74
2022/08/26 10:20:55;;;;;;;1.60;1.10;;;29.90;55.40;;;;;;5015676;28;21082;-74
2022/08/26 10:23:25;;;;;;;1.03;0.90;;;30.00;55.30;;;;;;5015961;28;20437;-73
2022/08/26 10:25:56;;;;;;;1.40;1.30;;;30.20;54.70;;;;;;5015948;28;20472;-73
2022/08/26 10:28:31;;;;;;;1.27;1.00;;;30.20;54.40;;;;;;5015845;28;20448;-72
2022/08/26 10:31:03;;;;;;;1.17;0.90;;;30.00;54.40;;;;;;5015842;28;20534;-72
2022/08/26 10:33:30;;;;;;;1.57;1.13;;;29.50;55.10;;;;;;5015804;28;20428;-73
2022/08/26 10:35:59;;;;;;;1.93;1.30;;;29.60;55.40;;;;;;5016046;28;20444;-72
2022/08/26 10:38:33;;;;;;;1.50;1.00;;;29.40;56.00;;;;;;5015631;28;20502;-72
2022/08/26 10:41:05;;;;;;;1.43;1.10;;;29.50;55.40;;;;;;5015376;28;20850;-72
2022/08/26 10:43:36;;;;;;;1.17;1.07;;;29.90;54.40;;;;;;5015604;28;20441;-73
2022/08/26 10:46:09;;;;;;;1.00;0.90;;;30.10;54.30;;;;;;5015478;28;20538;-72
2022/08/26 10:48:45;;;;;;;0.90;0.90;;;30.50;53.10;;;;;;5016141;28;20439;-73
2022/08/26 10:51:14;;;;;;;1.10;0.97;;;30.70;52.10;;;;;;5015411;28;20476;-73
2022/08/26 10:53:51;;;;;;;1.80;1.00;;;31.00;52.20;;;;;;5015442;28;20461;-72
2022/08/26 10:56:34;;;;;;;1.13;1.03;;;31.40;51.40;;;;;;5015734;28;20857;-73
2022/08/26 10:59:09;;;;;;;0.80;0.80;;;31.60;51.20;;;;;;5015831;28;20433;-72
2022/08/26 11:01:41;;;;;;;0.80;0.80;;;31.70;50.80;;;;;;5015269;28;20538;-73
2022/08/26 11:04:19;;;;;;;1.10;1.00;;;31.60;50.40;;;;;;5015103;28;20437;-73
2022/08/26 11:06:46;;;;;;;1.30;1.20;;;31.50;50.70;;;;;;5015433;28;20432;-73
2022/08/26 11:09:43;;;;;;;0.80;0.80;;;31.30;49.70;;;;;;5014866;28;20440;-73
2022/08/26 11:12:09;;;;;;;0.80;0.80;;;31.00;49.70;;;;;;5015079;28;20544;-72
2022/08/26 11:14:37;;;;;;;0.87;0.87;;;30.70;48.70;;;;;;5014677;28;20447;-73
2022/08/26 11:17:10;;;;;;;0.73;0.73;;;30.40;50.20;;;;;;5014975;28;20488;-73
2022/08/26 11:20:07;;;;;;;0.80;0.80;;;30.80;51.00;;;;;;5014645;28;20524;-72
2022/08/26 11:22:37;;;;;;;1.40;0.90;;;31.20;50.00;;;;;;4953283;28;20514;-73
2022/08/26 11:25:09;;;;;;;1.07;1.00;;;31.40;49.70;;;;;;5001858;28;20497;-73
2022/08/26 11:28:04;;;;;;;0.90;0.90;;;31.70;48.80;;;;;;5014661;28;20437;-72
2022/08/26 11:30:49;;;;;;;1.10;1.00;;;32.10;48.10;;;;;;5014582;28;20512;-72
2022/08/26 11:33:58;;;;;;;0.93;0.93;;;32.20;48.70;;;;;;5014484;28;20944;-73
2022/08/26 11:36:39;;;;;;;0.80;0.80;;;32.00;49.60;;;;;;5014298;28;20842;-73
2022/08/26 11:39:19;;;;;;;1.37;1.27;;;32.20;48.10;;;;;;5014577;28;20491;-73
2022/08/26 11:41:48;;;;;;;0.90;0.90;;;32.20;47.90;;;;;;5014500;28;20456;-72
2022/08/26 11:44:21;;;;;;;1.00;0.93;;;32.10;47.60;;;;;;5014270;28;20440;-73
2022/08/26 11:46:56;;;;;;;1.13;1.03;;;32.40;48.60;;;;;;5014426;28;20531;-72
2022/08/26 11:49:24;;;;;;;1.07;0.97;;;32.60;47.40;;;;;;5014005;28;20966;-72
2022/08/26 11:51:52;;;;;;;0.73;0.73;;;32.50;47.60;;;;;;5014151;28;20468;-72
2022/08/26 11:54:21;;;;;;;1.20;0.80;;;32.50;47.30;;;;;;5013894;28;20975;-73
2022/08/26 11:56:51;;;;;;;1.13;0.70;;;32.30;47.60;;;;;;5013908;28;20544;-73
2022/08/26 11:59:22;;;;;;;1.10;0.80;;;32.00;48.30;;;;;;5014193;28;20448;-72
2022/08/26 12:01:52;;;;;;;0.90;0.90;;;32.10;47.40;;;;;;5013807;28;20495;-73
2022/08/26 12:04:27;;;;;;;1.00;0.90;;;32.20;47.00;;;;;;5014047;28;20452;-73
2022/08/26 12:06:57;;;;;;;0.80;0.73;;;32.60;47.20;;;;;;5014085;28;20586;-73
2022/08/26 12:09:26;;;;;;;0.97;0.87;;;32.80;47.40;;;;;;5013993;28;20460;-73
2022/08/26 12:12:08;;;;;;;0.90;0.90;;;33.00;47.60;;;;;;5013885;28;20464;-72
2022/08/26 12:14:35;;;;;;;0.90;0.90;;;33.30;46.20;;;;;;5013583;28;20943;-73
2022/08/26 12:17:09;;;;;;;0.90;0.90;;;33.30;45.80;;;;;;5014300;28;20502;-73
2022/08/26 12:19:36;;;;;;;0.80;0.80;;;33.20;45.50;;;;;;5013748;28;20433;-72
2022/08/26 12:22:08;;;;;;;1.00;0.90;;;33.00;46.00;;;;;;5013678;28;20464;-72
2022/08/26 12:24:35;;;;;;;0.80;0.80;;;32.80;46.60;;;;;;5013641;28;20436;-72
2022/08/26 12:27:14;;;;;;;0.70;0.70;;;32.70;45.60;;;;;;5014309;28;20453;-72
2022/08/26 12:29:41;;;;;;;1.00;0.90;;;32.90;46.70;;;;;;5013640;28;20794;-72
2022/08/26 12:32:11;;;;;;;1.00;0.90;;;33.10;47.10;;;;;;5013184;28;20983;-72
2022/08/26 12:34:39;;;;;;;0.97;0.70;;;33.30;47.10;;;;;;5013393;28;20441;-73
2022/08/26 12:37:11;;;;;;;1.47;1.23;;;33.10;47.00;;;;;;5013538;28;20444;-73
2022/08/26 12:39:40;;;;;;;1.07;1.00;;;32.80;47.30;;;;;;5013519;28;20515;-73
2022/08/26 12:42:23;;;;;;;1.00;0.90;;;32.30;47.90;;;;;;5013319;28;20476;-72
2022/08/26 12:44:58;;;;;;;1.00;0.90;;;31.60;47.50;;;;;;5013461;28;20624;-72
2022/08/26 12:47:28;;;;;;;1.00;0.90;;;31.40;48.70;;;;;;5013515;28;20494;-72
2022/08/26 12:50:02;;;;;;;1.57;1.00;;;31.40;49.20;;;;;;5013431;28;20449;-72
2022/08/26 12:52:33;;;;;;;1.00;0.90;;;31.60;48.90;;;;;;5013352;28;20499;-71
2022/08/26 12:55:02;;;;;;;0.87;0.80;;;31.50;49.20;;;;;;5013503;28;20467;-72
2022/08/26 12:57:33;;;;;;;1.10;0.80;;;31.20;49.50;;;;;;5013438;28;20523;-72
2022/08/26 13:00:24;;;;;;;0.83;0.80;;;31.20;49.40;;;;;;5013497;28;20471;-71
2022/08/26 13:02:50;;;;;;;0.90;0.90;;;31.20;49.60;;;;;;5013077;28;20564;-72
2022/08/26 13:05:20;;;;;;;1.20;1.10;;;31.20;49.60;;;;;;5012977;28;20491;-72
2022/08/26 13:08:10;;;;;;;1.03;0.93;;;31.10;50.00;;;;;;5013057;28;20866;-72
2022/08/26 13:10:40;;;;;;;0.87;0.83;;;31.10;49.50;;;;;;5013423;28;20425;-72
2022/08/26 13:13:06;;;;;;;1.20;1.00;;;31.20;49.50;;;;;;5013033;28;20939;-72
2022/08/26 13:15:33;;;;;;;0.90;0.90;;;31.30;49.30;;;;;;5013278;28;20436;-72
2022/08/26 13:18:01;;;;;;;0.90;0.80;;;31.40;49.30;;;;;;5013024;28;20998;-73
2022/08/26 13:20:28;;;;;;;1.07;1.00;;;31.40;50.00;;;;;;5013190;28;20471;-73
2022/08/26 13:22:55;;;;;;;1.30;1.20;;;31.40;50.60;;;;;;5013221;28;20437;-72
2022/08/26 13:25:23;;;;;;;1.17;0.97;;;31.40;51.10;;;;;;5013117;28;20492;-72
2022/08/26 13:27:50;;;;;;;1.17;1.07;;;31.40;51.40;;;;;;5013119;28;20484;-72
2022/08/26 13:30:17;;;;;;;1.23;1.10;;;31.20;50.90;;;;;;5013128;28;20452;-71
2022/08/26 13:32:44;;;;;;;0.90;0.90;;;30.70;52.00;;;;;;5013042;28;20538;-72
2022/08/26 13:35:11;;;;;;;0.90;0.80;;;30.70;52.40;;;;;;5013155;28;20440;-72
2022/08/26 13:37:37;;;;;;;1.17;1.07;;;30.50;53.20;;;;;;5013115;28;20524;-72
2022/08/26 13:40:06;;;;;;;0.90;0.80;;;30.60;52.80;;;;;;5013061;28;20456;-72
2022/08/26 13:42:34;;;;;;;1.00;0.90;;;30.60;53.10;;;;;;5012948;28;20496;-72
2022/08/26 13:45:01;;;;;;;1.10;0.90;;;30.50;52.90;;;;;;5013001;28;20455;-73
2022/08/26 13:47:27;;;;;;;0.90;0.90;;;30.60;52.70;;;;;;5016705;28;20451;-72
2022/08/26 13:49:55;;;;;;;1.10;0.93;;;30.70;52.70;;;;;;5016546;28;20444;-72
2022/08/26 13:52:21;;;;;;;1.17;1.07;;;30.70;52.60;;;;;;5016379;28;20565;-72
2022/08/26 13:54:48;;;;;;;1.57;1.40;;;30.70;53.60;;;;;;5016495;28;20448;-72
2022/08/26 13:57:15;;;;;;;1.50;1.40;;;30.50;57.40;;;;;;5016282;28;20471;-72
2022/08/26 13:59:43;;;;;;;1.43;1.33;;;30.20;61.50;;;;;;5016425;28;20448;-73
2022/08/26 14:02:09;;;;;;;3.00;1.50;;;30.00;63.70;;;;;;5015909;28;20987;-73
2022/08/26 14:04:36;;;;;;;1.70;1.60;;;29.70;64.10;;;;;;5016045;28;20854;-72
2022/08/26 14:07:03;;;;;;;1.90;1.80;;;29.20;64.80;;;;;;5016207;28;20887;-72
2022/08/26 14:09:30;;;;;;;1.60;1.50;;;28.50;68.20;;;;;;5016295;28;20646;-72
2022/08/26 14:11:56;;;;;;;1.40;1.30;;;28.30;69.90;;;;;;5015790;28;20892;-72
2022/08/26 14:14:23;;;;;;;1.50;1.40;;;28.30;70.10;;;;;;5016171;28;20452;-72
2022/08/26 14:16:53;;;;;;;1.60;1.50;;;28.10;71.80;;;;;;5016171;28;20443;-72
2022/08/26 14:19:20;;;;;;;1.77;1.67;;;27.90;72.20;;;;;;5016119;28;20456;-72
2022/08/26 14:21:46;;;;;;;1.30;1.20;;;27.60;71.40;;;;;;5015933;28;20542;-71
2022/08/26 14:24:13;;;;;;;1.20;1.10;;;27.20;70.60;;;;;;5016031;28;20448;-71
2022/08/26 14:26:40;;;;;;;1.57;1.30;;;26.80;69.10;;;;;;5015855;28;20511;-71
2022/08/26 14:29:07;;;;;;;1.40;1.30;;;26.20;69.40;;;;;;5015897;28;20448;-71
2022/08/26 14:31:34;;;;;;;1.40;1.30;;;26.00;72.80;;;;;;5015414;28;20874;-71
2022/08/26 14:34:05;;;;;;;1.40;1.30;;;26.10;73.50;;;;;;5015549;28;20887;-71
2022/08/26 14:36:32;;;;;;;1.40;1.30;;;26.20;73.90;;;;;;5015685;28;20425;-71
2022/08/26 14:39:01;;;;;;;1.50;1.40;;;26.30;73.50;;;;;;5015664;28;20507;-71
2022/08/26 14:41:29;;;;;;;1.37;1.27;;;26.20;72.20;;;;;;5015550;28;20475;-71
2022/08/26 14:43:59;;;;;;;1.30;1.20;;;26.10;73.20;;;;;;5015491;28;20467;-71
2022/08/26 14:46:27;;;;;;;1.23;1.13;;;26.00;72.50;;;;;;5015193;28;20858;-71
2022/08/26 14:48:55;;;;;;;0.90;0.90;;;25.60;71.50;;;;;;5015472;28;20448;-70
2022/08/26 14:51:23;;;;;;;0.90;0.90;;;25.30;71.60;;;;;;5015154;28;20480;-71
2022/08/26 14:56:36;;;;;;;0.90;0.90;;;25.10;73.30;;;;;;5015437;28;20400;-71
2022/08/26 14:59:03;;;;;;;0.83;0.83;;;25.20;73.90;;;;;;5014297;28;20448;-72
2022/08/26 15:01:30;;;;;;;0.90;0.90;;;25.20;73.40;;;;;;5014923;28;20488;-71
2022/08/26 15:03:57;;;;;;;0.70;0.70;;;25.10;72.10;;;;;;5015656;28;20461;-70
2022/08/26 15:06:26;;;;;;;0.83;0.80;;;24.80;73.00;;;;;;5015131;28;20484;-71
2022/08/26 15:08:53;;;;;;;1.00;0.90;;;24.70;73.80;;;;;;5015145;28;20448;-72
2022/08/26 15:11:19;;;;;;;1.00;0.80;;;24.60;73.10;;;;;;5014717;28;21063;-71
2022/08/26 15:13:47;;;;;;;0.80;0.80;;;24.60;73.80;;;;;;5015109;28;20488;-71
2022/08/26 15:16:23;;;;;;;0.93;0.90;;;24.80;74.30;;;;;;5016324;28;20856;-71
2022/08/26 15:18:51;;;;;;;1.00;1.00;;;25.10;74.60;;;;;;5015069;28;20443;-72
2022/08/26 15:21:18;;;;;;;0.93;0.90;;;25.70;74.50;;;;;;5014877;28;20551;-71
2022/08/26 15:23:47;;;;;;;0.73;0.73;;;25.90;69.40;;;;;;5014866;28;20547;-72
2022/08/26 15:26:15;;;;;;;0.80;0.80;;;26.00;69.50;;;;;;5014799;28;20488;-71
2022/08/26 15:28:42;;;;;;;0.87;0.70;;;26.30;70.10;;;;;;5014736;28;20794;-71
2022/08/26 15:31:09;;;;;;;0.87;0.80;;;26.40;69.80;;;;;;5014758;28;20499;-71
2022/08/26 15:33:37;;;;;;;0.90;0.80;;;26.40;70.70;;;;;;5015463;28;20502;-71
2022/08/26 15:36:05;;;;;;;0.87;0.70;;;26.50;70.90;;;;;;5014721;28;20455;-71
2022/08/26 15:38:34;;;;;;;0.80;0.80;;;26.50;71.60;;;;;;5014550;28;20794;-72
2022/08/26 15:41:04;;;;;;;1.33;1.00;;;26.50;69.80;;;;;;5014510;28;20473;-72
2022/08/26 15:43:31;;;;;;;1.00;0.90;;;26.30;69.80;;;;;;5014294;28;20425;-72
2022/08/26 15:45:58;;;;;;;1.00;0.80;;;26.20;70.40;;;;;;5014405;28;20534;-71
2022/08/26 15:48:25;;;;;;;0.80;0.80;;;26.10;70.00;;;;;;5014325;28;20449;-72
2022/08/26 15:50:53;;;;;;;0.80;0.80;;;26.10;70.40;;;;;;5014339;28;20468;-72
2022/08/26 15:53:22;;;;;;;0.90;0.80;;;26.10;70.60;;;;;;5014306;28;20883;-72
2022/08/26 15:55:49;;;;;;;0.83;0.83;;;26.10;71.10;;;;;;5014104;28;20535;-72
2022/08/26 15:58:18;;;;;;;1.00;1.00;;;26.00;72.70;;;;;;5014300;28;20531;-72
2022/08/26 16:00:45;;;;;;;1.00;1.00;;;26.00;73.60;;;;;;5014297;28;20473;-72
2022/08/26 16:03:11;;;;;;;0.90;0.90;;;26.00;74.30;;;;;;5014251;28;20429;-71
2022/08/26 16:05:39;;;;;;;1.00;1.00;;;26.00;74.90;;;;;;5014136;28;20440;-72
2022/08/26 16:08:08;;;;;;;0.90;0.90;;;25.90;75.20;;;;;;5014242;28;20448;-72
2022/08/26 16:10:37;;;;;;;0.90;0.80;;;25.70;71.40;;;;;;5013534;28;20944;-71